sensor_id;sensor_type;location;lat;lon;timestamp;P1;durP1;ratioP1;P2;durP2;ratioP2
9445;SDS011;4761;49.490;10.908;2023-04-09T00:01:01;8.00;;;4.90;;
9445;SDS011;4761;49.490;10.908;2023-04-09T00:03:27;9.37;;;5.57;;
9445;SDS011;4761;49.490;10.908;2023-04-09T00:05:53;7.50;;;4.93;;
9445;SDS011;4761;49.490;10.908;2023-04-09T00:08:20;6.27;;;4.70;;
9445;SDS011;4761;49.490;10.908;2023-04-09T00:10:47;7.40;;;5.10;;
9445;SDS011;4761;49.490;10.908;2023-04-09T00:13:13;7.13;;;4.93;;
9445;SDS011;4761;49.490;10.908;2023-04-09T00:15:39;7.63;;;4.97;;
9445;SDS011;4761;49.490;10.908;2023-04-09T00:18:04;6.77;;;4.90;;
9445;SDS011;4761;49.490;10.908;2023-04-09T00:20:30;5.80;;;4.43;;
9445;SDS011;4761;49.490;10.908;2023-04-09T00:22:55;5.83;;;4.23;;
9445;SDS011;4761;49.490;10.908;2023-04-09T00:25:22;6.03;;;4.40;;
9445;SDS011;4761;49.490;10.908;2023-04-09T00:27:48;5.43;;;4.10;;
9445;SDS011;4761;49.490;10.908;2023-04-09T00:30:13;6.07;;;4.43;;
9445;SDS011;4761;49.490;10.908;2023-04-09T00:32:40;8.07;;;4.77;;
9445;SDS011;4761;49.490;10.908;2023-04-09T00:35:05;5.27;;;3.83;;
9445;SDS011;4761;49.490;10.908;2023-04-09T00:37:31;6.10;;;4.73;;
9445;SDS011;4761;49.490;10.908;2023-04-09T00:39:57;5.67;;;4.43;;
9445;SDS011;4761;49.490;10.908;2023-04-09T00:42:22;5.83;;;4.37;;
9445;SDS011;4761;49.490;10.908;2023-04-09T00:44:48;5.57;;;3.97;;
9445;SDS011;4761;49.490;10.908;2023-04-09T00:47:13;6.03;;;4.40;;
9445;SDS011;4761;49.490;10.908;2023-04-09T00:49:39;5.47;;;4.03;;
9445;SDS011;4761;49.490;10.908;2023-04-09T00:52:05;5.87;;;4.03;;
9445;SDS011;4761;49.490;10.908;2023-04-09T00:54:31;5.87;;;4.20;;
9445;SDS011;4761;49.490;10.908;2023-04-09T00:56:57;4.83;;;3.93;;
9445;SDS011;4761;49.490;10.908;2023-04-09T00:59:23;5.33;;;4.00;;
9445;SDS011;4761;49.490;10.908;2023-04-09T01:01:49;5.80;;;4.10;;
9445;SDS011;4761;49.490;10.908;2023-04-09T01:04:15;4.83;;;3.90;;
9445;SDS011;4761;49.490;10.908;2023-04-09T01:07:03;4.20;;;3.67;;
9445;SDS011;4761;49.490;10.908;2023-04-09T01:09:47;4.80;;;3.97;;
9445;SDS011;4761;49.490;10.908;2023-04-09T01:17:30;4.40;;;3.77;;
9445;SDS011;4761;49.490;10.908;2023-04-09T01:23:18;4.47;;;3.70;;
9445;SDS011;4761;49.490;10.908;2023-04-09T01:28:59;5.63;;;4.40;;
9445;SDS011;4761;49.490;10.908;2023-04-09T01:31:27;4.13;;;3.50;;
9445;SDS011;4761;49.490;10.908;2023-04-09T01:33:55;4.17;;;3.77;;
9445;SDS011;4761;49.490;10.908;2023-04-09T01:36:22;4.17;;;3.67;;
9445;SDS011;4761;49.490;10.908;2023-04-09T01:38:50;4.33;;;3.73;;
9445;SDS011;4761;49.490;10.908;2023-04-09T01:41:18;3.53;;;3.20;;
9445;SDS011;4761;49.490;10.908;2023-04-09T01:43:46;4.17;;;3.77;;
9445;SDS011;4761;49.490;10.908;2023-04-09T01:46:16;4.50;;;3.53;;
9445;SDS011;4761;49.490;10.908;2023-04-09T01:48:43;4.20;;;3.80;;
9445;SDS011;4761;49.490;10.908;2023-04-09T01:51:10;4.17;;;3.40;;
9445;SDS011;4761;49.490;10.908;2023-04-09T01:53:38;4.80;;;3.80;;
9445;SDS011;4761;49.490;10.908;2023-04-09T01:56:05;4.20;;;3.80;;
9445;SDS011;4761;49.490;10.908;2023-04-09T01:58:31;4.27;;;3.60;;
9445;SDS011;4761;49.490;10.908;2023-04-09T02:01:05;4.10;;;3.70;;
9445;SDS011;4761;49.490;10.908;2023-04-09T02:03:46;3.80;;;3.50;;
9445;SDS011;4761;49.490;10.908;2023-04-09T02:06:24;4.13;;;3.73;;
9445;SDS011;4761;49.490;10.908;2023-04-09T02:08:59;3.40;;;3.10;;
9445;SDS011;4761;49.490;10.908;2023-04-09T02:11:27;4.00;;;3.60;;
9445;SDS011;4761;49.490;10.908;2023-04-09T02:13:56;4.63;;;3.93;;
9445;SDS011;4761;49.490;10.908;2023-04-09T02:16:23;3.70;;;3.40;;
9445;SDS011;4761;49.490;10.908;2023-04-09T02:18:54;4.23;;;3.83;;
9445;SDS011;4761;49.490;10.908;2023-04-09T02:21:25;4.37;;;3.90;;
9445;SDS011;4761;49.490;10.908;2023-04-09T02:23:52;3.57;;;3.27;;
9445;SDS011;4761;49.490;10.908;2023-04-09T02:26:18;4.17;;;3.77;;
9445;SDS011;4761;49.490;10.908;2023-04-09T02:28:44;3.60;;;3.30;;
9445;SDS011;4761;49.490;10.908;2023-04-09T02:31:09;4.17;;;3.77;;
9445;SDS011;4761;49.490;10.908;2023-04-09T02:33:35;4.87;;;3.57;;
9445;SDS011;4761;49.490;10.908;2023-04-09T02:36:00;3.83;;;3.50;;
9445;SDS011;4761;49.490;10.908;2023-04-09T02:38:26;4.03;;;3.60;;
9445;SDS011;4761;49.490;10.908;2023-04-09T02:40:51;4.33;;;3.67;;
9445;SDS011;4761;49.490;10.908;2023-04-09T02:43:17;3.50;;;3.20;;
9445;SDS011;4761;49.490;10.908;2023-04-09T02:45:42;3.70;;;3.40;;
9445;SDS011;4761;49.490;10.908;2023-04-09T02:48:08;4.17;;;3.77;;
9445;SDS011;4761;49.490;10.908;2023-04-09T02:50:33;4.17;;;3.77;;
9445;SDS011;4761;49.490;10.908;2023-04-09T02:52:59;3.60;;;3.30;;
9445;SDS011;4761;49.490;10.908;2023-04-09T02:55:24;3.43;;;3.13;;
9445;SDS011;4761;49.490;10.908;2023-04-09T02:57:51;4.00;;;3.70;;
9445;SDS011;4761;49.490;10.908;2023-04-09T03:00:16;5.27;;;3.60;;
9445;SDS011;4761;49.490;10.908;2023-04-09T03:02:42;4.23;;;3.83;;
9445;SDS011;4761;49.490;10.908;2023-04-09T03:05:07;4.10;;;3.67;;
9445;SDS011;4761;49.490;10.908;2023-04-09T03:07:33;9.23;;;8.33;;
9445;SDS011;4761;49.490;10.908;2023-04-09T03:09:58;10.20;;;9.17;;
9445;SDS011;4761;49.490;10.908;2023-04-09T03:12:24;10.07;;;9.07;;
9445;SDS011;4761;49.490;10.908;2023-04-09T03:14:49;9.00;;;8.20;;
9445;SDS011;4761;49.490;10.908;2023-04-09T03:17:15;10.70;;;8.37;;
9445;SDS011;4761;49.490;10.908;2023-04-09T03:19:40;9.47;;;8.57;;
9445;SDS011;4761;49.490;10.908;2023-04-09T03:22:06;9.00;;;8.20;;
9445;SDS011;4761;49.490;10.908;2023-04-09T03:24:32;8.83;;;8.03;;
9445;SDS011;4761;49.490;10.908;2023-04-09T03:26:57;8.87;;;7.97;;
9445;SDS011;4761;49.490;10.908;2023-04-09T03:29:23;10.03;;;9.03;;
9445;SDS011;4761;49.490;10.908;2023-04-09T03:31:48;9.57;;;8.67;;
9445;SDS011;4761;49.490;10.908;2023-04-09T03:34:14;9.53;;;8.63;;
9445;SDS011;4761;49.490;10.908;2023-04-09T03:36:40;9.37;;;8.47;;
9445;SDS011;4761;49.490;10.908;2023-04-09T03:39:05;9.27;;;8.37;;
9445;SDS011;4761;49.490;10.908;2023-04-09T03:41:31;9.43;;;8.53;;
9445;SDS011;4761;49.490;10.908;2023-04-09T03:43:56;9.43;;;8.53;;
9445;SDS011;4761;49.490;10.908;2023-04-09T03:46:22;9.90;;;8.90;;
9445;SDS011;4761;49.490;10.908;2023-04-09T03:48:48;8.87;;;8.07;;
9445;SDS011;4761;49.490;10.908;2023-04-09T03:51:15;9.23;;;8.33;;
9445;SDS011;4761;49.490;10.908;2023-04-09T03:53:41;9.47;;;8.57;;
9445;SDS011;4761;49.490;10.908;2023-04-09T03:56:07;9.60;;;8.70;;
9445;SDS011;4761;49.490;10.908;2023-04-09T03:58:33;12.17;;;9.30;;
9445;SDS011;4761;49.490;10.908;2023-04-09T04:00:58;17.23;;;11.73;;
9445;SDS011;4761;49.490;10.908;2023-04-09T04:03:24;16.90;;;11.33;;
9445;SDS011;4761;49.490;10.908;2023-04-09T04:05:50;17.23;;;11.63;;
9445;SDS011;4761;49.490;10.908;2023-04-09T04:08:16;17.77;;;12.73;;
9445;SDS011;4761;49.490;10.908;2023-04-09T04:10:41;13.47;;;11.27;;
9445;SDS011;4761;49.490;10.908;2023-04-09T04:13:07;11.40;;;10.03;;
9445;SDS011;4761;49.490;10.908;2023-04-09T04:15:33;10.40;;;9.33;;
9445;SDS011;4761;49.490;10.908;2023-04-09T04:18:06;10.23;;;9.10;;
9445;SDS011;4761;49.490;10.908;2023-04-09T04:20:32;10.30;;;9.30;;
9445;SDS011;4761;49.490;10.908;2023-04-09T04:22:58;9.50;;;8.63;;
9445;SDS011;4761;49.490;10.908;2023-04-09T04:25:23;8.47;;;7.70;;
9445;SDS011;4761;49.490;10.908;2023-04-09T04:27:49;8.47;;;7.67;;
9445;SDS011;4761;49.490;10.908;2023-04-09T04:30:14;8.37;;;7.57;;
9445;SDS011;4761;49.490;10.908;2023-04-09T04:32:40;8.07;;;7.37;;
9445;SDS011;4761;49.490;10.908;2023-04-09T04:35:06;7.77;;;7.07;;
9445;SDS011;4761;49.490;10.908;2023-04-09T04:37:31;8.03;;;7.30;;
9445;SDS011;4761;49.490;10.908;2023-04-09T04:39:59;7.87;;;7.17;;
9445;SDS011;4761;49.490;10.908;2023-04-09T04:42:25;8.80;;;7.90;;
9445;SDS011;4761;49.490;10.908;2023-04-09T04:44:51;8.60;;;7.80;;
9445;SDS011;4761;49.490;10.908;2023-04-09T04:47:16;9.23;;;8.33;;
9445;SDS011;4761;49.490;10.908;2023-04-09T04:49:43;8.40;;;7.67;;
9445;SDS011;4761;49.490;10.908;2023-04-09T04:52:09;8.30;;;7.50;;
9445;SDS011;4761;49.490;10.908;2023-04-09T04:54:35;8.13;;;7.43;;
9445;SDS011;4761;49.490;10.908;2023-04-09T04:57:00;8.23;;;7.43;;
9445;SDS011;4761;49.490;10.908;2023-04-09T04:59:26;8.50;;;7.80;;
9445;SDS011;4761;49.490;10.908;2023-04-09T05:01:52;3.87;;;3.50;;
9445;SDS011;4761;49.490;10.908;2023-04-09T05:04:17;4.20;;;3.47;;
9445;SDS011;4761;49.490;10.908;2023-04-09T05:06:43;3.80;;;3.47;;
9445;SDS011;4761;49.490;10.908;2023-04-09T05:09:08;3.87;;;3.47;;
9445;SDS011;4761;49.490;10.908;2023-04-09T05:11:34;3.97;;;3.57;;
9445;SDS011;4761;49.490;10.908;2023-04-09T05:13:59;4.20;;;3.77;;
9445;SDS011;4761;49.490;10.908;2023-04-09T05:16:25;4.20;;;3.80;;
9445;SDS011;4761;49.490;10.908;2023-04-09T05:18:51;4.23;;;3.83;;
9445;SDS011;4761;49.490;10.908;2023-04-09T05:21:16;4.13;;;3.73;;
9445;SDS011;4761;49.490;10.908;2023-04-09T05:23:42;3.90;;;3.60;;
9445;SDS011;4761;49.490;10.908;2023-04-09T05:26:07;4.33;;;3.93;;
9445;SDS011;4761;49.490;10.908;2023-04-09T05:28:33;4.10;;;3.70;;
9445;SDS011;4761;49.490;10.908;2023-04-09T05:30:58;4.30;;;3.90;;
9445;SDS011;4761;49.490;10.908;2023-04-09T05:33:24;4.33;;;3.93;;
9445;SDS011;4761;49.490;10.908;2023-04-09T05:35:49;3.90;;;3.50;;
9445;SDS011;4761;49.490;10.908;2023-04-09T05:38:15;9.37;;;8.47;;
9445;SDS011;4761;49.490;10.908;2023-04-09T05:40:40;9.23;;;8.33;;
9445;SDS011;4761;49.490;10.908;2023-04-09T05:43:08;10.00;;;9.00;;
9445;SDS011;4761;49.490;10.908;2023-04-09T05:45:33;9.50;;;8.50;;
9445;SDS011;4761;49.490;10.908;2023-04-09T05:47:59;9.20;;;8.30;;
9445;SDS011;4761;49.490;10.908;2023-04-09T05:50:25;8.70;;;7.90;;
9445;SDS011;4761;49.490;10.908;2023-04-09T05:52:51;8.40;;;7.60;;
9445;SDS011;4761;49.490;10.908;2023-04-09T05:55:16;9.00;;;8.10;;
9445;SDS011;4761;49.490;10.908;2023-04-09T05:57:42;9.13;;;8.23;;
9445;SDS011;4761;49.490;10.908;2023-04-09T06:00:09;8.43;;;7.63;;
9445;SDS011;4761;49.490;10.908;2023-04-09T06:02:35;8.43;;;7.63;;
9445;SDS011;4761;49.490;10.908;2023-04-09T06:05:01;8.07;;;7.27;;
9445;SDS011;4761;49.490;10.908;2023-04-09T06:07:26;8.70;;;7.90;;
9445;SDS011;4761;49.490;10.908;2023-04-09T06:09:52;9.07;;;8.27;;
9445;SDS011;4761;49.490;10.908;2023-04-09T06:12:19;8.97;;;8.17;;
9445;SDS011;4761;49.490;10.908;2023-04-09T06:14:47;8.50;;;7.70;;
9445;SDS011;4761;49.490;10.908;2023-04-09T06:17:13;9.27;;;8.37;;
9445;SDS011;4761;49.490;10.908;2023-04-09T06:19:38;8.23;;;7.53;;
9445;SDS011;4761;49.490;10.908;2023-04-09T06:22:04;7.93;;;7.23;;
9445;SDS011;4761;49.490;10.908;2023-04-09T06:24:30;8.60;;;7.80;;
9445;SDS011;4761;49.490;10.908;2023-04-09T06:26:57;9.30;;;8.40;;
9445;SDS011;4761;49.490;10.908;2023-04-09T06:29:22;8.93;;;8.13;;
9445;SDS011;4761;49.490;10.908;2023-04-09T06:31:48;9.70;;;8.80;;
9445;SDS011;4761;49.490;10.908;2023-04-09T06:34:13;9.93;;;9.03;;
9445;SDS011;4761;49.490;10.908;2023-04-09T06:36:39;14.07;;;11.80;;
9445;SDS011;4761;49.490;10.908;2023-04-09T06:39:05;20.90;;;14.87;;
9445;SDS011;4761;49.490;10.908;2023-04-09T06:41:31;14.33;;;11.60;;
9445;SDS011;4761;49.490;10.908;2023-04-09T06:43:57;9.47;;;8.57;;
9445;SDS011;4761;49.490;10.908;2023-04-09T06:46:23;11.10;;;10.10;;
9445;SDS011;4761;49.490;10.908;2023-04-09T06:48:48;9.70;;;8.80;;
9445;SDS011;4761;49.490;10.908;2023-04-09T06:51:14;10.07;;;9.07;;
9445;SDS011;4761;49.490;10.908;2023-04-09T06:53:39;11.47;;;10.37;;
9445;SDS011;4761;49.490;10.908;2023-04-09T06:56:05;17.10;;;15.60;;
9445;SDS011;4761;49.490;10.908;2023-04-09T06:58:31;11.00;;;10.00;;
9445;SDS011;4761;49.490;10.908;2023-04-09T07:00:57;9.80;;;8.90;;
9445;SDS011;4761;49.490;10.908;2023-04-09T07:03:23;10.87;;;9.77;;
9445;SDS011;4761;49.490;10.908;2023-04-09T07:05:51;10.30;;;9.30;;
9445;SDS011;4761;49.490;10.908;2023-04-09T07:08:17;10.23;;;9.33;;
9445;SDS011;4761;49.490;10.908;2023-04-09T07:10:43;11.50;;;10.43;;
9445;SDS011;4761;49.490;10.908;2023-04-09T07:13:11;17.70;;;16.20;;
9445;SDS011;4761;49.490;10.908;2023-04-09T07:15:36;18.90;;;17.30;;
9445;SDS011;4761;49.490;10.908;2023-04-09T07:18:02;17.27;;;15.70;;
9445;SDS011;4761;49.490;10.908;2023-04-09T07:20:27;14.73;;;13.13;;
9445;SDS011;4761;49.490;10.908;2023-04-09T07:22:53;13.00;;;11.70;;
9445;SDS011;4761;49.490;10.908;2023-04-09T07:25:19;12.50;;;11.20;;
9445;SDS011;4761;49.490;10.908;2023-04-09T07:27:45;12.93;;;11.73;;
9445;SDS011;4761;49.490;10.908;2023-04-09T07:30:10;12.40;;;11.10;;
9445;SDS011;4761;49.490;10.908;2023-04-09T07:32:36;12.20;;;11.00;;
9445;SDS011;4761;49.490;10.908;2023-04-09T07:35:02;12.13;;;11.03;;
9445;SDS011;4761;49.490;10.908;2023-04-09T07:37:30;13.00;;;11.70;;
9445;SDS011;4761;49.490;10.908;2023-04-09T07:39:55;12.37;;;11.27;;
9445;SDS011;4761;49.490;10.908;2023-04-09T07:42:21;13.20;;;11.90;;
9445;SDS011;4761;49.490;10.908;2023-04-09T07:44:47;12.93;;;11.63;;
9445;SDS011;4761;49.490;10.908;2023-04-09T07:47:13;13.37;;;11.97;;
9445;SDS011;4761;49.490;10.908;2023-04-09T07:49:38;12.60;;;11.43;;
9445;SDS011;4761;49.490;10.908;2023-04-09T07:52:04;12.70;;;11.60;;
9445;SDS011;4761;49.490;10.908;2023-04-09T07:54:30;12.33;;;11.23;;
9445;SDS011;4761;49.490;10.908;2023-04-09T07:56:56;13.07;;;11.77;;
9445;SDS011;4761;49.490;10.908;2023-04-09T07:59:22;11.97;;;10.87;;
9445;SDS011;4761;49.490;10.908;2023-04-09T08:01:48;4.40;;;3.80;;
9445;SDS011;4761;49.490;10.908;2023-04-09T08:04:14;4.40;;;4.00;;
9445;SDS011;4761;49.490;10.908;2023-04-09T08:06:40;4.60;;;4.20;;
9445;SDS011;4761;49.490;10.908;2023-04-09T08:09:05;4.63;;;4.23;;
9445;SDS011;4761;49.490;10.908;2023-04-09T08:11:31;5.10;;;4.60;;
9445;SDS011;4761;49.490;10.908;2023-04-09T08:13:57;4.47;;;4.07;;
9445;SDS011;4761;49.490;10.908;2023-04-09T08:16:25;4.93;;;4.47;;
9445;SDS011;4761;49.490;10.908;2023-04-09T08:18:50;4.27;;;3.87;;
9445;SDS011;4761;49.490;10.908;2023-04-09T08:21:16;5.00;;;4.50;;
9445;SDS011;4761;49.490;10.908;2023-04-09T08:23:42;4.80;;;4.30;;
9445;SDS011;4761;49.490;10.908;2023-04-09T08:26:08;5.47;;;4.77;;
9445;SDS011;4761;49.490;10.908;2023-04-09T08:28:33;4.53;;;4.13;;
9445;SDS011;4761;49.490;10.908;2023-04-09T08:30:58;5.07;;;4.57;;
9445;SDS011;4761;49.490;10.908;2023-04-09T08:33:24;4.47;;;4.07;;
9445;SDS011;4761;49.490;10.908;2023-04-09T08:35:50;5.27;;;4.30;;
9445;SDS011;4761;49.490;10.908;2023-04-09T08:38:17;4.37;;;3.97;;
9445;SDS011;4761;49.490;10.908;2023-04-09T08:40:43;5.10;;;4.60;;
9445;SDS011;4761;49.490;10.908;2023-04-09T08:43:09;4.70;;;4.30;;
9445;SDS011;4761;49.490;10.908;2023-04-09T08:45:40;5.07;;;4.57;;
9445;SDS011;4761;49.490;10.908;2023-04-09T08:48:06;4.80;;;4.30;;
9445;SDS011;4761;49.490;10.908;2023-04-09T08:50:37;4.67;;;4.27;;
9445;SDS011;4761;49.490;10.908;2023-04-09T08:53:05;4.53;;;4.13;;
9445;SDS011;4761;49.490;10.908;2023-04-09T08:55:32;4.67;;;4.27;;
9445;SDS011;4761;49.490;10.908;2023-04-09T08:58:04;4.60;;;4.20;;
9445;SDS011;4761;49.490;10.908;2023-04-09T09:00:34;4.90;;;4.40;;
9445;SDS011;4761;49.490;10.908;2023-04-09T09:03:04;4.40;;;3.90;;
9445;SDS011;4761;49.490;10.908;2023-04-09T09:05:43;4.40;;;4.00;;
9445;SDS011;4761;49.490;10.908;2023-04-09T09:08:13;4.80;;;4.30;;
9445;SDS011;4761;49.490;10.908;2023-04-09T09:10:50;4.40;;;4.00;;
9445;SDS011;4761;49.490;10.908;2023-04-09T09:13:22;3.77;;;3.47;;
9445;SDS011;4761;49.490;10.908;2023-04-09T09:15:49;4.50;;;4.10;;
9445;SDS011;4761;49.490;10.908;2023-04-09T09:18:19;4.40;;;4.00;;
9445;SDS011;4761;49.490;10.908;2023-04-09T09:20:45;4.80;;;4.40;;
9445;SDS011;4761;49.490;10.908;2023-04-09T09:23:11;4.37;;;3.97;;
9445;SDS011;4761;49.490;10.908;2023-04-09T09:25:40;4.50;;;4.10;;
9445;SDS011;4761;49.490;10.908;2023-04-09T09:28:10;4.23;;;3.83;;
9445;SDS011;4761;49.490;10.908;2023-04-09T09:30:37;4.43;;;3.90;;
9445;SDS011;4761;49.490;10.908;2023-04-09T09:33:09;4.30;;;3.90;;
9445;SDS011;4761;49.490;10.908;2023-04-09T09:35:48;4.20;;;3.80;;
9445;SDS011;4761;49.490;10.908;2023-04-09T09:38:15;4.20;;;3.80;;
9445;SDS011;4761;49.490;10.908;2023-04-09T09:40:42;4.37;;;3.80;;
9445;SDS011;4761;49.490;10.908;2023-04-09T09:43:08;4.10;;;3.70;;
9445;SDS011;4761;49.490;10.908;2023-04-09T09:45:34;3.87;;;3.57;;
9445;SDS011;4761;49.490;10.908;2023-04-09T09:48:01;3.70;;;3.33;;
9445;SDS011;4761;49.490;10.908;2023-04-09T09:50:27;4.33;;;3.93;;
9445;SDS011;4761;49.490;10.908;2023-04-09T09:53:05;4.30;;;3.70;;
9445;SDS011;4761;49.490;10.908;2023-04-09T09:55:32;4.20;;;3.80;;
9445;SDS011;4761;49.490;10.908;2023-04-09T09:58:02;4.10;;;3.80;;
9445;SDS011;4761;49.490;10.908;2023-04-09T10:00:36;3.97;;;3.60;;
9445;SDS011;4761;49.490;10.908;2023-04-09T10:03:06;3.80;;;3.40;;
9445;SDS011;4761;49.490;10.908;2023-04-09T10:05:38;4.10;;;3.70;;
9445;SDS011;4761;49.490;10.908;2023-04-09T10:08:05;3.60;;;3.30;;
9445;SDS011;4761;49.490;10.908;2023-04-09T10:10:31;3.77;;;3.47;;
9445;SDS011;4761;49.490;10.908;2023-04-09T10:12:58;3.83;;;3.53;;
9445;SDS011;4761;49.490;10.908;2023-04-09T10:15:24;4.03;;;3.60;;
9445;SDS011;4761;49.490;10.908;2023-04-09T10:17:52;3.60;;;3.30;;
9445;SDS011;4761;49.490;10.908;2023-04-09T10:20:21;3.63;;;3.33;;
9445;SDS011;4761;49.490;10.908;2023-04-09T10:22:52;4.00;;;3.70;;
9445;SDS011;4761;49.490;10.908;2023-04-09T10:25:20;3.90;;;3.60;;
9445;SDS011;4761;49.490;10.908;2023-04-09T10:27:57;3.93;;;3.60;;
9445;SDS011;4761;49.490;10.908;2023-04-09T10:30:31;4.10;;;3.70;;
9445;SDS011;4761;49.490;10.908;2023-04-09T10:33:12;4.13;;;3.73;;
9445;SDS011;4761;49.490;10.908;2023-04-09T10:35:40;4.20;;;3.80;;
9445;SDS011;4761;49.490;10.908;2023-04-09T10:38:06;4.40;;;4.00;;
9445;SDS011;4761;49.490;10.908;2023-04-09T10:40:33;3.67;;;3.37;;
9445;SDS011;4761;49.490;10.908;2023-04-09T10:42:58;4.20;;;3.80;;
9445;SDS011;4761;49.490;10.908;2023-04-09T10:45:25;3.90;;;3.50;;
9445;SDS011;4761;49.490;10.908;2023-04-09T10:48:03;3.90;;;3.60;;
9445;SDS011;4761;49.490;10.908;2023-04-09T10:50:31;3.80;;;3.50;;
9445;SDS011;4761;49.490;10.908;2023-04-09T10:52:57;4.30;;;3.90;;
9445;SDS011;4761;49.490;10.908;2023-04-09T10:55:34;4.13;;;3.80;;
9445;SDS011;4761;49.490;10.908;2023-04-09T10:58:02;4.20;;;3.80;;
9445;SDS011;4761;49.490;10.908;2023-04-09T11:00:29;3.73;;;3.43;;
9445;SDS011;4761;49.490;10.908;2023-04-09T11:05:33;4.40;;;4.00;;
9445;SDS011;4761;49.490;10.908;2023-04-09T11:08:09;4.17;;;3.77;;
9445;SDS011;4761;49.490;10.908;2023-04-09T11:10:36;4.10;;;3.70;;
9445;SDS011;4761;49.490;10.908;2023-04-09T11:13:03;4.37;;;3.97;;
9445;SDS011;4761;49.490;10.908;2023-04-09T11:15:29;4.00;;;3.60;;
9445;SDS011;4761;49.490;10.908;2023-04-09T11:17:56;4.20;;;3.80;;
9445;SDS011;4761;49.490;10.908;2023-04-09T11:20:23;3.70;;;3.40;;
9445;SDS011;4761;49.490;10.908;2023-04-09T11:22:50;3.80;;;3.50;;
9445;SDS011;4761;49.490;10.908;2023-04-09T11:25:26;3.80;;;3.50;;
9445;SDS011;4761;49.490;10.908;2023-04-09T11:27:53;3.90;;;3.60;;
9445;SDS011;4761;49.490;10.908;2023-04-09T11:30:19;3.73;;;3.43;;
9445;SDS011;4761;49.490;10.908;2023-04-09T11:32:45;3.90;;;3.60;;
9445;SDS011;4761;49.490;10.908;2023-04-09T11:35:12;3.77;;;3.47;;
9445;SDS011;4761;49.490;10.908;2023-04-09T11:37:44;3.93;;;3.63;;
9445;SDS011;4761;49.490;10.908;2023-04-09T11:40:18;4.07;;;3.73;;
9445;SDS011;4761;49.490;10.908;2023-04-09T11:42:49;3.63;;;3.33;;
9445;SDS011;4761;49.490;10.908;2023-04-09T11:45:16;3.87;;;3.57;;
9445;SDS011;4761;49.490;10.908;2023-04-09T11:47:44;3.90;;;3.60;;
9445;SDS011;4761;49.490;10.908;2023-04-09T11:50:10;3.87;;;3.53;;
9445;SDS011;4761;49.490;10.908;2023-04-09T11:52:37;3.30;;;3.00;;
9445;SDS011;4761;49.490;10.908;2023-04-09T11:55:03;3.57;;;3.27;;
9445;SDS011;4761;49.490;10.908;2023-04-09T12:00:12;3.87;;;3.57;;
9445;SDS011;4761;49.490;10.908;2023-04-09T12:02:42;4.00;;;3.60;;
9445;SDS011;4761;49.490;10.908;2023-04-09T12:05:20;3.63;;;3.33;;
9445;SDS011;4761;49.490;10.908;2023-04-09T12:07:50;3.63;;;3.33;;
9445;SDS011;4761;49.490;10.908;2023-04-09T12:10:16;3.60;;;3.30;;
9445;SDS011;4761;49.490;10.908;2023-04-09T12:12:43;3.63;;;3.33;;
9445;SDS011;4761;49.490;10.908;2023-04-09T12:15:11;3.70;;;3.40;;
9445;SDS011;4761;49.490;10.908;2023-04-09T12:17:37;3.43;;;3.13;;
9445;SDS011;4761;49.490;10.908;2023-04-09T12:20:03;3.30;;;3.00;;
9445;SDS011;4761;49.490;10.908;2023-04-09T12:22:31;3.67;;;3.37;;
9445;SDS011;4761;49.490;10.908;2023-04-09T12:24:56;3.53;;;3.23;;
9445;SDS011;4761;49.490;10.908;2023-04-09T12:27:22;3.60;;;3.30;;
9445;SDS011;4761;49.490;10.908;2023-04-09T12:29:47;3.50;;;3.20;;
9445;SDS011;4761;49.490;10.908;2023-04-09T12:32:13;3.87;;;3.40;;
9445;SDS011;4761;49.490;10.908;2023-04-09T12:34:38;3.67;;;3.00;;
9445;SDS011;4761;49.490;10.908;2023-04-09T12:37:05;3.20;;;3.00;;
9445;SDS011;4761;49.490;10.908;2023-04-09T12:39:30;3.60;;;3.30;;
9445;SDS011;4761;49.490;10.908;2023-04-09T12:41:56;3.10;;;2.90;;
9445;SDS011;4761;49.490;10.908;2023-04-09T12:44:21;3.30;;;3.00;;
9445;SDS011;4761;49.490;10.908;2023-04-09T12:46:47;3.53;;;3.23;;
9445;SDS011;4761;49.490;10.908;2023-04-09T12:49:13;3.43;;;3.13;;
9445;SDS011;4761;49.490;10.908;2023-04-09T12:51:39;3.40;;;3.10;;
9445;SDS011;4761;49.490;10.908;2023-04-09T12:54:05;3.40;;;3.10;;
9445;SDS011;4761;49.490;10.908;2023-04-09T12:56:31;3.50;;;3.20;;
9445;SDS011;4761;49.490;10.908;2023-04-09T12:58:56;3.43;;;3.17;;
9445;SDS011;4761;49.490;10.908;2023-04-09T13:01:22;3.70;;;3.40;;
9445;SDS011;4761;49.490;10.908;2023-04-09T13:03:47;3.40;;;3.10;;
9445;SDS011;4761;49.490;10.908;2023-04-09T13:06:13;3.47;;;3.17;;
9445;SDS011;4761;49.490;10.908;2023-04-09T13:08:38;3.50;;;3.20;;
9445;SDS011;4761;49.490;10.908;2023-04-09T13:11:04;3.33;;;3.03;;
9445;SDS011;4761;49.490;10.908;2023-04-09T13:13:29;3.33;;;3.03;;
9445;SDS011;4761;49.490;10.908;2023-04-09T13:15:55;3.63;;;3.27;;
9445;SDS011;4761;49.490;10.908;2023-04-09T13:18:21;3.03;;;2.83;;
9445;SDS011;4761;49.490;10.908;2023-04-09T13:20:46;2.80;;;2.60;;
9445;SDS011;4761;49.490;10.908;2023-04-09T13:23:12;3.30;;;3.00;;
9445;SDS011;4761;49.490;10.908;2023-04-09T13:25:37;3.70;;;3.40;;
9445;SDS011;4761;49.490;10.908;2023-04-09T13:28:03;3.20;;;3.00;;
9445;SDS011;4761;49.490;10.908;2023-04-09T13:30:28;3.93;;;3.23;;
9445;SDS011;4761;49.490;10.908;2023-04-09T13:32:54;3.23;;;3.03;;
9445;SDS011;4761;49.490;10.908;2023-04-09T13:35:20;2.80;;;2.60;;
9445;SDS011;4761;49.490;10.908;2023-04-09T13:37:45;2.97;;;2.77;;
9445;SDS011;4761;49.490;10.908;2023-04-09T13:40:11;3.43;;;3.17;;
9445;SDS011;4761;49.490;10.908;2023-04-09T13:42:36;3.00;;;2.80;;
9445;SDS011;4761;49.490;10.908;2023-04-09T13:45:02;3.30;;;3.00;;
9445;SDS011;4761;49.490;10.908;2023-04-09T13:47:28;3.03;;;2.83;;
9445;SDS011;4761;49.490;10.908;2023-04-09T13:49:54;3.50;;;3.20;;
9445;SDS011;4761;49.490;10.908;2023-04-09T13:52:20;3.50;;;3.20;;
9445;SDS011;4761;49.490;10.908;2023-04-09T13:54:45;3.47;;;3.17;;
9445;SDS011;4761;49.490;10.908;2023-04-09T13:57:11;3.40;;;3.10;;
9445;SDS011;4761;49.490;10.908;2023-04-09T13:59:36;3.57;;;3.27;;
9445;SDS011;4761;49.490;10.908;2023-04-09T14:02:02;3.20;;;3.00;;
9445;SDS011;4761;49.490;10.908;2023-04-09T14:04:28;3.23;;;2.93;;
9445;SDS011;4761;49.490;10.908;2023-04-09T14:06:54;4.03;;;3.20;;
9445;SDS011;4761;49.490;10.908;2023-04-09T14:09:21;3.33;;;3.03;;
9445;SDS011;4761;49.490;10.908;2023-04-09T14:11:46;3.50;;;3.20;;
9445;SDS011;4761;49.490;10.908;2023-04-09T14:14:13;3.40;;;3.10;;
9445;SDS011;4761;49.490;10.908;2023-04-09T14:16:39;3.10;;;2.90;;
9445;SDS011;4761;49.490;10.908;2023-04-09T14:19:04;3.10;;;2.90;;
9445;SDS011;4761;49.490;10.908;2023-04-09T14:21:30;3.20;;;3.00;;
9445;SDS011;4761;49.490;10.908;2023-04-09T14:23:55;3.47;;;3.17;;
9445;SDS011;4761;49.490;10.908;2023-04-09T14:26:21;3.60;;;3.30;;
9445;SDS011;4761;49.490;10.908;2023-04-09T14:28:47;3.30;;;3.00;;
9445;SDS011;4761;49.490;10.908;2023-04-09T14:31:13;3.03;;;2.83;;
9445;SDS011;4761;49.490;10.908;2023-04-09T14:33:39;3.10;;;2.90;;
9445;SDS011;4761;49.490;10.908;2023-04-09T14:36:05;3.30;;;3.00;;
9445;SDS011;4761;49.490;10.908;2023-04-09T14:38:31;3.47;;;3.17;;
9445;SDS011;4761;49.490;10.908;2023-04-09T14:40:57;3.10;;;2.90;;
9445;SDS011;4761;49.490;10.908;2023-04-09T14:43:23;3.20;;;3.00;;
9445;SDS011;4761;49.490;10.908;2023-04-09T14:45:49;3.07;;;2.87;;
9445;SDS011;4761;49.490;10.908;2023-04-09T14:48:15;3.43;;;3.13;;
9445;SDS011;4761;49.490;10.908;2023-04-09T14:50:41;3.50;;;3.20;;
9445;SDS011;4761;49.490;10.908;2023-04-09T14:53:07;3.40;;;3.10;;
9445;SDS011;4761;49.490;10.908;2023-04-09T14:55:32;3.40;;;3.10;;
9445;SDS011;4761;49.490;10.908;2023-04-09T14:57:58;3.40;;;3.10;;
9445;SDS011;4761;49.490;10.908;2023-04-09T15:00:25;3.40;;;3.10;;
9445;SDS011;4761;49.490;10.908;2023-04-09T15:02:50;3.53;;;3.23;;
9445;SDS011;4761;49.490;10.908;2023-04-09T15:05:19;3.17;;;2.97;;
9445;SDS011;4761;49.490;10.908;2023-04-09T15:07:47;3.40;;;3.10;;
9445;SDS011;4761;49.490;10.908;2023-04-09T15:10:13;3.27;;;3.07;;
9445;SDS011;4761;49.490;10.908;2023-04-09T15:12:39;3.10;;;2.90;;